sensor_id;sensor_type;location;lat;lon;timestamp;P1;durP1;ratioP1;P2;durP2;ratioP2
76103;SDS011;64831;44.870;37.336;2022-12-24T00:00:33;19.23;;;8.23;;
76103;SDS011;64831;44.870;37.336;2022-12-24T00:02:59;22.45;;;9.40;;
76103;SDS011;64831;44.870;37.336;2022-12-24T00:05:25;19.17;;;8.63;;
76103;SDS011;64831;44.870;37.336;2022-12-24T00:07:51;18.45;;;8.20;;
76103;SDS011;64831;44.870;37.336;2022-12-24T00:10:17;17.10;;;7.95;;
76103;SDS011;64831;44.870;37.336;2022-12-24T00:12:43;19.17;;;7.70;;
76103;SDS011;64831;44.870;37.336;2022-12-24T00:15:09;20.63;;;8.45;;
76103;SDS011;64831;44.870;37.336;2022-12-24T00:17:35;17.95;;;8.30;;
76103;SDS011;64831;44.870;37.336;2022-12-24T00:20:02;49.63;;;19.77;;
76103;SDS011;64831;44.870;37.336;2022-12-24T00:22:29;20.95;;;9.77;;
76103;SDS011;64831;44.870;37.336;2022-12-24T00:24:55;20.83;;;7.88;;
76103;SDS011;64831;44.870;37.336;2022-12-24T00:27:21;16.48;;;8.07;;
76103;SDS011;64831;44.870;37.336;2022-12-24T00:29:46;20.42;;;7.95;;
76103;SDS011;64831;44.870;37.336;2022-12-24T00:32:12;18.63;;;8.07;;
76103;SDS011;64831;44.870;37.336;2022-12-24T00:34:38;20.73;;;8.20;;
76103;SDS011;64831;44.870;37.336;2022-12-24T00:37:06;22.65;;;7.78;;
76103;SDS011;64831;44.870;37.336;2022-12-24T00:39:32;20.23;;;8.07;;
76103;SDS011;64831;44.870;37.336;2022-12-24T00:41:58;22.38;;;8.27;;
76103;SDS011;64831;44.870;37.336;2022-12-24T00:44:24;16.98;;;7.80;;
76103;SDS011;64831;44.870;37.336;2022-12-24T00:46:50;18.40;;;8.45;;
76103;SDS011;64831;44.870;37.336;2022-12-24T00:49:16;19.48;;;8.18;;
76103;SDS011;64831;44.870;37.336;2022-12-24T00:51:42;17.70;;;7.63;;
76103;SDS011;64831;44.870;37.336;2022-12-24T00:54:08;22.40;;;8.63;;
76103;SDS011;64831;44.870;37.336;2022-12-24T00:56:34;18.58;;;8.10;;
76103;SDS011;64831;44.870;37.336;2022-12-24T00:59:00;20.55;;;8.85;;
76103;SDS011;64831;44.870;37.336;2022-12-24T01:01:27;22.45;;;8.68;;
76103;SDS011;64831;44.870;37.336;2022-12-24T01:03:53;19.80;;;8.65;;
76103;SDS011;64831;44.870;37.336;2022-12-24T01:06:39;19.92;;;8.30;;
76103;SDS011;64831;44.870;37.336;2022-12-24T01:09:05;18.65;;;8.60;;
76103;SDS011;64831;44.870;37.336;2022-12-24T01:11:31;17.30;;;8.13;;
76103;SDS011;64831;44.870;37.336;2022-12-24T01:13:57;19.50;;;7.90;;
76103;SDS011;64831;44.870;37.336;2022-12-24T01:16:23;20.65;;;8.90;;
76103;SDS011;64831;44.870;37.336;2022-12-24T01:18:49;19.67;;;8.15;;
76103;SDS011;64831;44.870;37.336;2022-12-24T01:21:15;22.20;;;8.02;;
76103;SDS011;64831;44.870;37.336;2022-12-24T01:23:41;16.40;;;7.28;;
76103;SDS011;64831;44.870;37.336;2022-12-24T01:26:08;18.60;;;8.00;;
76103;SDS011;64831;44.870;37.336;2022-12-24T01:28:36;22.98;;;8.50;;
76103;SDS011;64831;44.870;37.336;2022-12-24T01:31:08;22.52;;;7.35;;
76103;SDS011;64831;44.870;37.336;2022-12-24T01:33:35;14.32;;;6.03;;
76103;SDS011;64831;44.870;37.336;2022-12-24T01:36:02;16.45;;;6.80;;
76103;SDS011;64831;44.870;37.336;2022-12-24T01:38:28;18.08;;;7.65;;
76103;SDS011;64831;44.870;37.336;2022-12-24T01:40:54;16.17;;;6.95;;
76103;SDS011;64831;44.870;37.336;2022-12-24T01:43:38;15.50;;;6.65;;
76103;SDS011;64831;44.870;37.336;2022-12-24T01:48:43;14.70;;;6.05;;
76103;SDS011;64831;44.870;37.336;2022-12-24T01:53:57;21.88;;;9.00;;
76103;SDS011;64831;44.870;37.336;2022-12-24T01:56:27;22.30;;;8.43;;
76103;SDS011;64831;44.870;37.336;2022-12-24T01:58:56;17.58;;;8.15;;
76103;SDS011;64831;44.870;37.336;2022-12-24T02:01:27;19.83;;;8.82;;
76103;SDS011;64831;44.870;37.336;2022-12-24T02:03:53;22.58;;;9.13;;
76103;SDS011;64831;44.870;37.336;2022-12-24T02:06:19;18.95;;;8.90;;
76103;SDS011;64831;44.870;37.336;2022-12-24T02:08:46;20.15;;;8.65;;
76103;SDS011;64831;44.870;37.336;2022-12-24T02:11:16;16.85;;;7.93;;
76103;SDS011;64831;44.870;37.336;2022-12-24T02:13:50;19.75;;;8.68;;
76103;SDS011;64831;44.870;37.336;2022-12-24T02:19:50;17.05;;;7.80;;
76103;SDS011;64831;44.870;37.336;2022-12-24T02:31:01;20.92;;;8.15;;
76103;SDS011;64831;44.870;37.336;2022-12-24T02:33:37;21.70;;;9.23;;
76103;SDS011;64831;44.870;37.336;2022-12-24T02:36:24;18.30;;;8.02;;
76103;SDS011;64831;44.870;37.336;2022-12-24T02:41:27;19.15;;;8.90;;
76103;SDS011;64831;44.870;37.336;2022-12-24T02:44:16;21.83;;;9.10;;
76103;SDS011;64831;44.870;37.336;2022-12-24T02:46:44;20.50;;;8.95;;
76103;SDS011;64831;44.870;37.336;2022-12-24T02:49:12;17.23;;;7.65;;
76103;SDS011;64831;44.870;37.336;2022-12-24T02:51:38;19.73;;;7.85;;
76103;SDS011;64831;44.870;37.336;2022-12-24T02:54:04;19.90;;;8.32;;
76103;SDS011;64831;44.870;37.336;2022-12-24T03:02:51;16.90;;;8.32;;
76103;SDS011;64831;44.870;37.336;2022-12-24T03:07:44;19.75;;;7.72;;
76103;SDS011;64831;44.870;37.336;2022-12-24T03:13:17;16.90;;;7.47;;
76103;SDS011;64831;44.870;37.336;2022-12-24T03:15:44;17.98;;;8.25;;
76103;SDS011;64831;44.870;37.336;2022-12-24T03:18:12;18.73;;;8.05;;
76103;SDS011;64831;44.870;37.336;2022-12-24T03:20:49;19.05;;;7.90;;
76103;SDS011;64831;44.870;37.336;2022-12-24T03:23:30;17.27;;;7.40;;
76103;SDS011;64831;44.870;37.336;2022-12-24T03:25:58;20.52;;;7.65;;
76103;SDS011;64831;44.870;37.336;2022-12-24T03:28:26;19.75;;;8.27;;
76103;SDS011;64831;44.870;37.336;2022-12-24T03:30:53;16.45;;;7.80;;
76103;SDS011;64831;44.870;37.336;2022-12-24T03:33:19;14.65;;;6.75;;
76103;SDS011;64831;44.870;37.336;2022-12-24T03:35:45;16.05;;;7.05;;
76103;SDS011;64831;44.870;37.336;2022-12-24T03:38:11;17.02;;;7.88;;
76103;SDS011;64831;44.870;37.336;2022-12-24T03:40:37;16.50;;;7.60;;
76103;SDS011;64831;44.870;37.336;2022-12-24T03:43:03;18.50;;;7.82;;
76103;SDS011;64831;44.870;37.336;2022-12-24T03:45:29;19.40;;;7.68;;
76103;SDS011;64831;44.870;37.336;2022-12-24T03:47:55;18.63;;;7.88;;
76103;SDS011;64831;44.870;37.336;2022-12-24T03:50:21;16.50;;;7.63;;
76103;SDS011;64831;44.870;37.336;2022-12-24T03:52:47;17.95;;;8.63;;
76103;SDS011;64831;44.870;37.336;2022-12-24T03:55:13;19.63;;;8.75;;
76103;SDS011;64831;44.870;37.336;2022-12-24T03:57:39;19.33;;;7.15;;
76103;SDS011;64831;44.870;37.336;2022-12-24T04:00:05;17.85;;;7.60;;
76103;SDS011;64831;44.870;37.336;2022-12-24T04:02:37;17.77;;;7.72;;
76103;SDS011;64831;44.870;37.336;2022-12-24T04:05:03;15.18;;;7.03;;
76103;SDS011;64831;44.870;37.336;2022-12-24T04:07:30;19.02;;;7.70;;
76103;SDS011;64831;44.870;37.336;2022-12-24T04:09:57;17.67;;;7.60;;
76103;SDS011;64831;44.870;37.336;2022-12-24T04:12:23;18.00;;;7.72;;
76103;SDS011;64831;44.870;37.336;2022-12-24T04:14:49;19.70;;;8.00;;
76103;SDS011;64831;44.870;37.336;2022-12-24T04:17:15;17.88;;;8.27;;
76103;SDS011;64831;44.870;37.336;2022-12-24T04:19:41;16.23;;;7.82;;
76103;SDS011;64831;44.870;37.336;2022-12-24T04:22:07;19.10;;;8.18;;
76103;SDS011;64831;44.870;37.336;2022-12-24T04:24:33;19.67;;;8.15;;
76103;SDS011;64831;44.870;37.336;2022-12-24T04:26:59;17.95;;;8.05;;
76103;SDS011;64831;44.870;37.336;2022-12-24T04:29:25;21.85;;;7.80;;
76103;SDS011;64831;44.870;37.336;2022-12-24T04:31:50;13.70;;;6.15;;
76103;SDS011;64831;44.870;37.336;2022-12-24T04:34:16;16.10;;;7.65;;
76103;SDS011;64831;44.870;37.336;2022-12-24T04:36:42;16.10;;;7.85;;
76103;SDS011;64831;44.870;37.336;2022-12-24T04:39:08;19.15;;;8.35;;
76103;SDS011;64831;44.870;37.336;2022-12-24T04:41:34;21.02;;;8.02;;
76103;SDS011;64831;44.870;37.336;2022-12-24T04:44:00;17.30;;;7.35;;
76103;SDS011;64831;44.870;37.336;2022-12-24T04:46:27;19.05;;;7.60;;
76103;SDS011;64831;44.870;37.336;2022-12-24T04:48:57;16.75;;;8.02;;
76103;SDS011;64831;44.870;37.336;2022-12-24T04:51:24;21.33;;;8.30;;
76103;SDS011;64831;44.870;37.336;2022-12-24T04:53:51;18.77;;;7.45;;
76103;SDS011;64831;44.870;37.336;2022-12-24T04:56:19;19.73;;;8.00;;
76103;SDS011;64831;44.870;37.336;2022-12-24T04:58:47;18.73;;;9.75;;
76103;SDS011;64831;44.870;37.336;2022-12-24T05:01:21;24.48;;;10.57;;
76103;SDS011;64831;44.870;37.336;2022-12-24T05:03:48;20.67;;;9.05;;
76103;SDS011;64831;44.870;37.336;2022-12-24T05:06:15;22.65;;;9.65;;
76103;SDS011;64831;44.870;37.336;2022-12-24T05:08:43;18.50;;;8.00;;
76103;SDS011;64831;44.870;37.336;2022-12-24T05:11:09;17.63;;;8.38;;
76103;SDS011;64831;44.870;37.336;2022-12-24T05:13:38;17.27;;;8.20;;
76103;SDS011;64831;44.870;37.336;2022-12-24T05:16:06;19.27;;;8.68;;
76103;SDS011;64831;44.870;37.336;2022-12-24T05:18:32;19.42;;;7.78;;
76103;SDS011;64831;44.870;37.336;2022-12-24T05:20:58;20.33;;;8.35;;
76103;SDS011;64831;44.870;37.336;2022-12-24T05:23:24;20.23;;;8.90;;
76103;SDS011;64831;44.870;37.336;2022-12-24T05:26:22;23.15;;;9.20;;
76103;SDS011;64831;44.870;37.336;2022-12-24T05:28:55;17.55;;;8.20;;
76103;SDS011;64831;44.870;37.336;2022-12-24T05:31:24;19.37;;;9.03;;
76103;SDS011;64831;44.870;37.336;2022-12-24T05:33:51;21.48;;;8.32;;
76103;SDS011;64831;44.870;37.336;2022-12-24T05:36:19;20.65;;;7.97;;
76103;SDS011;64831;44.870;37.336;2022-12-24T05:38:45;17.98;;;8.50;;
76103;SDS011;64831;44.870;37.336;2022-12-24T05:41:11;20.40;;;7.57;;
76103;SDS011;64831;44.870;37.336;2022-12-24T05:43:37;17.40;;;8.18;;
76103;SDS011;64831;44.870;37.336;2022-12-24T05:46:04;19.23;;;8.77;;
76103;SDS011;64831;44.870;37.336;2022-12-24T05:48:32;18.13;;;8.45;;
76103;SDS011;64831;44.870;37.336;2022-12-24T05:50:59;14.20;;;6.55;;
76103;SDS011;64831;44.870;37.336;2022-12-24T05:53:30;18.10;;;7.82;;
76103;SDS011;64831;44.870;37.336;2022-12-24T05:56:15;18.65;;;8.05;;
76103;SDS011;64831;44.870;37.336;2022-12-24T05:58:43;18.83;;;7.18;;
76103;SDS011;64831;44.870;37.336;2022-12-24T06:01:10;16.70;;;7.43;;
76103;SDS011;64831;44.870;37.336;2022-12-24T06:03:37;19.73;;;7.75;;
76103;SDS011;64831;44.870;37.336;2022-12-24T06:06:04;19.15;;;7.88;;
76103;SDS011;64831;44.870;37.336;2022-12-24T06:08:32;24.13;;;8.45;;
76103;SDS011;64831;44.870;37.336;2022-12-24T06:11:00;17.30;;;8.15;;
76103;SDS011;64831;44.870;37.336;2022-12-24T06:13:27;27.10;;;8.00;;
76103;SDS011;64831;44.870;37.336;2022-12-24T06:15:54;18.85;;;8.10;;
76103;SDS011;64831;44.870;37.336;2022-12-24T06:18:23;18.20;;;8.63;;
76103;SDS011;64831;44.870;37.336;2022-12-24T06:20:53;16.55;;;7.90;;
76103;SDS011;64831;44.870;37.336;2022-12-24T06:23:20;21.83;;;9.15;;
76103;SDS011;64831;44.870;37.336;2022-12-24T06:25:47;31.23;;;9.40;;
76103;SDS011;64831;44.870;37.336;2022-12-24T06:28:13;16.27;;;7.32;;
76103;SDS011;64831;44.870;37.336;2022-12-24T06:30:39;20.60;;;8.40;;
76103;SDS011;64831;44.870;37.336;2022-12-24T06:33:05;16.70;;;7.53;;
76103;SDS011;64831;44.870;37.336;2022-12-24T06:35:32;26.98;;;9.68;;
76103;SDS011;64831;44.870;37.336;2022-12-24T06:37:58;19.23;;;8.70;;
76103;SDS011;64831;44.870;37.336;2022-12-24T06:40:25;14.15;;;4.75;;
76103;SDS011;64831;44.870;37.336;2022-12-24T06:42:51;22.95;;;9.32;;
76103;SDS011;64831;44.870;37.336;2022-12-24T06:45:17;21.85;;;8.88;;
76103;SDS011;64831;44.870;37.336;2022-12-24T06:47:43;21.48;;;8.70;;
76103;SDS011;64831;44.870;37.336;2022-12-24T06:50:09;18.83;;;8.27;;
76103;SDS011;64831;44.870;37.336;2022-12-24T06:52:35;23.38;;;7.88;;
76103;SDS011;64831;44.870;37.336;2022-12-24T06:55:02;20.67;;;9.57;;
76103;SDS011;64831;44.870;37.336;2022-12-24T06:57:28;18.80;;;8.45;;
76103;SDS011;64831;44.870;37.336;2022-12-24T06:59:56;16.33;;;7.90;;
76103;SDS011;64831;44.870;37.336;2022-12-24T07:02:23;14.27;;;7.38;;
76103;SDS011;64831;44.870;37.336;2022-12-24T07:04:49;19.95;;;8.45;;
76103;SDS011;64831;44.870;37.336;2022-12-24T07:07:15;16.50;;;8.05;;
76103;SDS011;64831;44.870;37.336;2022-12-24T07:09:40;15.43;;;7.53;;
76103;SDS011;64831;44.870;37.336;2022-12-24T07:12:06;17.10;;;8.20;;
76103;SDS011;64831;44.870;37.336;2022-12-24T07:14:32;15.18;;;7.20;;
76103;SDS011;64831;44.870;37.336;2022-12-24T07:16:58;17.23;;;7.80;;
76103;SDS011;64831;44.870;37.336;2022-12-24T07:19:24;15.10;;;6.88;;
76103;SDS011;64831;44.870;37.336;2022-12-24T07:21:50;13.10;;;7.13;;
76103;SDS011;64831;44.870;37.336;2022-12-24T07:24:16;16.08;;;6.97;;
76103;SDS011;64831;44.870;37.336;2022-12-24T07:26:42;14.57;;;7.00;;
76103;SDS011;64831;44.870;37.336;2022-12-24T07:29:08;12.73;;;6.90;;
76103;SDS011;64831;44.870;37.336;2022-12-24T07:31:34;16.63;;;8.10;;
76103;SDS011;64831;44.870;37.336;2022-12-24T07:34:00;20.40;;;8.77;;
76103;SDS011;64831;44.870;37.336;2022-12-24T07:36:26;18.40;;;9.02;;
76103;SDS011;64831;44.870;37.336;2022-12-24T07:38:52;24.33;;;10.60;;
76103;SDS011;64831;44.870;37.336;2022-12-24T07:41:18;23.10;;;9.48;;
76103;SDS011;64831;44.870;37.336;2022-12-24T07:43:45;21.27;;;9.15;;
76103;SDS011;64831;44.870;37.336;2022-12-24T07:46:11;16.60;;;7.80;;
76103;SDS011;64831;44.870;37.336;2022-12-24T07:48:37;13.43;;;6.82;;
76103;SDS011;64831;44.870;37.336;2022-12-24T07:51:03;16.70;;;7.05;;
76103;SDS011;64831;44.870;37.336;2022-12-24T07:53:29;14.02;;;6.82;;
76103;SDS011;64831;44.870;37.336;2022-12-24T07:55:56;13.93;;;7.32;;
76103;SDS011;64831;44.870;37.336;2022-12-24T07:58:22;16.63;;;7.70;;
76103;SDS011;64831;44.870;37.336;2022-12-24T08:00:48;14.57;;;5.90;;
76103;SDS011;64831;44.870;37.336;2022-12-24T08:03:20;17.10;;;7.18;;
76103;SDS011;64831;44.870;37.336;2022-12-24T08:05:46;16.55;;;6.78;;
76103;SDS011;64831;44.870;37.336;2022-12-24T08:08:13;16.02;;;7.32;;
76103;SDS011;64831;44.870;37.336;2022-12-24T08:10:40;15.32;;;7.10;;
76103;SDS011;64831;44.870;37.336;2022-12-24T08:13:09;17.52;;;7.32;;
76103;SDS011;64831;44.870;37.336;2022-12-24T08:15:35;12.05;;;5.95;;
76103;SDS011;64831;44.870;37.336;2022-12-24T08:18:01;12.82;;;5.47;;
76103;SDS011;64831;44.870;37.336;2022-12-24T08:20:28;12.52;;;5.97;;
76103;SDS011;64831;44.870;37.336;2022-12-24T08:22:54;13.15;;;6.90;;
76103;SDS011;64831;44.870;37.336;2022-12-24T08:25:20;14.68;;;6.63;;
76103;SDS011;64831;44.870;37.336;2022-12-24T08:27:46;12.45;;;6.65;;
76103;SDS011;64831;44.870;37.336;2022-12-24T08:30:12;13.13;;;6.60;;
76103;SDS011;64831;44.870;37.336;2022-12-24T08:32:38;20.65;;;7.15;;
76103;SDS011;64831;44.870;37.336;2022-12-24T08:35:04;13.43;;;7.50;;
76103;SDS011;64831;44.870;37.336;2022-12-24T08:37:30;13.52;;;7.47;;
76103;SDS011;64831;44.870;37.336;2022-12-24T08:39:56;11.93;;;6.15;;
76103;SDS011;64831;44.870;37.336;2022-12-24T08:42:22;22.90;;;9.30;;
76103;SDS011;64831;44.870;37.336;2022-12-24T08:44:48;12.75;;;6.60;;
76103;SDS011;64831;44.870;37.336;2022-12-24T08:47:14;12.88;;;7.18;;
76103;SDS011;64831;44.870;37.336;2022-12-24T08:49:40;11.00;;;5.75;;
76103;SDS011;64831;44.870;37.336;2022-12-24T08:52:06;15.63;;;7.75;;
76103;SDS011;64831;44.870;37.336;2022-12-24T08:54:32;15.32;;;7.50;;
76103;SDS011;64831;44.870;37.336;2022-12-24T08:56:58;16.85;;;8.25;;
76103;SDS011;64831;44.870;37.336;2022-12-24T08:59:24;15.27;;;7.93;;
76103;SDS011;64831;44.870;37.336;2022-12-24T09:01:50;17.23;;;7.78;;
76103;SDS011;64831;44.870;37.336;2022-12-24T09:04:16;16.10;;;8.05;;
76103;SDS011;64831;44.870;37.336;2022-12-24T09:06:42;15.45;;;7.82;;
76103;SDS011;64831;44.870;37.336;2022-12-24T09:09:07;16.02;;;8.60;;
76103;SDS011;64831;44.870;37.336;2022-12-24T09:11:34;17.58;;;8.80;;
76103;SDS011;64831;44.870;37.336;2022-12-24T09:14:00;13.80;;;7.63;;
76103;SDS011;64831;44.870;37.336;2022-12-24T09:16:26;19.23;;;9.75;;
76103;SDS011;64831;44.870;37.336;2022-12-24T09:18:52;17.88;;;8.90;;
76103;SDS011;64831;44.870;37.336;2022-12-24T09:21:18;18.98;;;9.15;;
76103;SDS011;64831;44.870;37.336;2022-12-24T09:23:45;17.33;;;9.00;;
76103;SDS011;64831;44.870;37.336;2022-12-24T09:26:13;18.55;;;9.80;;
76103;SDS011;64831;44.870;37.336;2022-12-24T09:28:43;17.77;;;9.45;;
76103;SDS011;64831;44.870;37.336;2022-12-24T09:31:10;16.25;;;9.45;;
76103;SDS011;64831;44.870;37.336;2022-12-24T09:33:38;18.15;;;9.80;;
76103;SDS011;64831;44.870;37.336;2022-12-24T09:36:05;27.25;;;15.60;;
76103;SDS011;64831;44.870;37.336;2022-12-24T09:38:32;19.75;;;9.90;;
76103;SDS011;64831;44.870;37.336;2022-12-24T09:40:59;17.48;;;9.45;;
76103;SDS011;64831;44.870;37.336;2022-12-24T09:43:27;19.63;;;10.30;;
76103;SDS011;64831;44.870;37.336;2022-12-24T09:46:03;19.40;;;10.60;;
76103;SDS011;64831;44.870;37.336;2022-12-24T09:48:54;19.23;;;10.63;;
76103;SDS011;64831;44.870;37.336;2022-12-24T09:51:28;24.02;;;11.20;;
76103;SDS011;64831;44.870;37.336;2022-12-24T09:54:00;20.02;;;10.82;;
76103;SDS011;64831;44.870;37.336;2022-12-24T09:56:39;18.67;;;10.27;;
76103;SDS011;64831;44.870;37.336;2022-12-24T09:59:13;17.05;;;9.65;;
76103;SDS011;64831;44.870;37.336;2022-12-24T10:01:41;16.95;;;9.82;;
76103;SDS011;64831;44.870;37.336;2022-12-24T10:04:11;20.52;;;11.32;;
76103;SDS011;64831;44.870;37.336;2022-12-24T10:19:48;20.33;;;10.80;;
76103;SDS011;64831;44.870;37.336;2022-12-24T10:25:30;20.00;;;9.88;;
76103;SDS011;64831;44.870;37.336;2022-12-24T10:28:16;19.73;;;11.18;;
76103;SDS011;64831;44.870;37.336;2022-12-24T10:30:45;24.33;;;11.18;;
76103;SDS011;64831;44.870;37.336;2022-12-24T10:33:15;18.75;;;10.75;;
76103;SDS011;64831;44.870;37.336;2022-12-24T10:35:45;19.35;;;10.63;;
76103;SDS011;64831;44.870;37.336;2022-12-24T10:38:17;18.42;;;9.15;;
76103;SDS011;64831;44.870;37.336;2022-12-24T10:40:44;19.83;;;9.68;;
76103;SDS011;64831;44.870;37.336;2022-12-24T10:43:19;16.38;;;8.82;;
76103;SDS011;64831;44.870;37.336;2022-12-24T10:46:35;21.60;;;11.73;;
76103;SDS011;64831;44.870;37.336;2022-12-24T10:49:07;20.30;;;10.65;;
76103;SDS011;64831;44.870;37.336;2022-12-24T10:56:43;22.98;;;9.05;;
76103;SDS011;64831;44.870;37.336;2022-12-24T10:59:33;17.67;;;10.20;;
76103;SDS011;64831;44.870;37.336;2022-12-24T11:02:24;18.10;;;8.98;;
76103;SDS011;64831;44.870;37.336;2022-12-24T11:04:53;18.52;;;9.63;;
76103;SDS011;64831;44.870;37.336;2022-12-24T11:07:20;18.70;;;10.27;;
76103;SDS011;64831;44.870;37.336;2022-12-24T11:10:00;11.55;;;6.82;;
76103;SDS011;64831;44.870;37.336;2022-12-24T11:12:29;18.20;;;9.75;;
76103;SDS011;64831;44.870;37.336;2022-12-24T11:14:59;16.48;;;9.13;;
76103;SDS011;64831;44.870;37.336;2022-12-24T11:17:41;15.43;;;8.30;;
76103;SDS011;64831;44.870;37.336;2022-12-24T11:20:17;19.80;;;9.73;;
76103;SDS011;64831;44.870;37.336;2022-12-24T11:22:49;16.60;;;8.70;;
76103;SDS011;64831;44.870;37.336;2022-12-24T11:25:22;18.90;;;9.50;;
76103;SDS011;64831;44.870;37.336;2022-12-24T11:27:54;20.67;;;10.75;;
76103;SDS011;64831;44.870;37.336;2022-12-24T11:33:44;20.63;;;9.05;;
76103;SDS011;64831;44.870;37.336;2022-12-24T11:35:46;10.70;;;5.95;;
76103;SDS011;64831;44.870;37.336;2022-12-24T11:38:17;13.32;;;7.47;;
76103;SDS011;64831;44.870;37.336;2022-12-24T11:43:39;20.23;;;9.25;;
76103;SDS011;64831;44.870;37.336;2022-12-24T11:46:13;19.37;;;9.87;;
76103;SDS011;64831;44.870;37.336;2022-12-24T11:48:43;17.15;;;9.25;;
76103;SDS011;64831;44.870;37.336;2022-12-24T11:51:22;21.63;;;9.70;;
76103;SDS011;64831;44.870;37.336;2022-12-24T11:54:08;18.98;;;9.82;;
76103;SDS011;64831;44.870;37.336;2022-12-24T11:56:48;17.30;;;8.68;;
76103;SDS011;64831;44.870;37.336;2022-12-24T11:59:21;20.48;;;9.70;;
76103;SDS011;64831;44.870;37.336;2022-12-24T16:18:15;26.30;;;12.05;;
76103;SDS011;64831;44.870;37.336;2022-12-24T16:20:47;29.45;;;11.98;;
76103;SDS011;64831;44.870;37.336;2022-12-24T16:23:15;27.80;;;12.70;;
76103;SDS011;64831;44.870;37.336;2022-12-24T16:25:46;26.38;;;12.38;;
76103;SDS011;64831;44.870;37.336;2022-12-24T16:28:12;22.40;;;11.35;;
76103;SDS011;64831;44.870;37.336;2022-12-24T16:30:39;25.83;;;11.48;;
76103;SDS011;64831;44.870;37.336;2022-12-24T16:33:05;26.30;;;12.63;;
76103;SDS011;64831;44.870;37.336;2022-12-24T16:35:38;24.95;;;12.00;;
76103;SDS011;64831;44.870;37.336;2022-12-24T16:38:04;28.02;;;13.52;;
76103;SDS011;64831;44.870;37.336;2022-12-24T16:40:30;22.65;;;11.40;;
76103;SDS011;64831;44.870;37.336;2022-12-24T16:42:56;25.88;;;11.98;;
76103;SDS011;64831;44.870;37.336;2022-12-24T16:45:41;25.92;;;11.10;;
76103;SDS011;64831;44.870;37.336;2022-12-24T16:48:08;29.42;;;13.48;;
76103;SDS011;64831;44.870;37.336;2022-12-24T16:50:41;24.50;;;11.15;;
76103;SDS011;64831;44.870;37.336;2022-12-24T16:53:08;24.55;;;11.40;;
76103;SDS011;64831;44.870;37.336;2022-12-24T16:55:37;25.10;;;11.30;;
76103;SDS011;64831;44.870;37.336;2022-12-24T16:58:03;25.60;;;11.68;;
76103;SDS011;64831;44.870;37.336;2022-12-24T17:00:29;26.10;;;11.80;;
76103;SDS011;64831;44.870;37.336;2022-12-24T17:02:54;23.38;;;11.63;;
76103;SDS011;64831;44.870;37.336;2022-12-24T17:05:20;14.82;;;7.57;;
76103;SDS011;64831;44.870;37.336;2022-12-24T17:07:48;21.00;;;10.35;;
76103;SDS011;64831;44.870;37.336;2022-12-24T17:10:15;25.33;;;12.23;;
76103;SDS011;64831;44.870;37.336;2022-12-24T17:12:41;23.92;;;10.82;;
76103;SDS011;64831;44.870;37.336;2022-12-24T17:15:07;23.58;;;11.75;;
76103;SDS011;64831;44.870;37.336;2022-12-24T17:17:34;24.40;;;11.57;;
76103;SDS011;64831;44.870;37.336;2022-12-24T17:20:00;26.30;;;11.23;;
76103;SDS011;64831;44.870;37.336;2022-12-24T17:22:28;22.52;;;10.82;;
76103;SDS011;64831;44.870;37.336;2022-12-24T17:24:55;22.58;;;11.07;;
76103;SDS011;64831;44.870;37.336;2022-12-24T17:27:21;21.92;;;9.65;;
76103;SDS011;64831;44.870;37.336;2022-12-24T17:29:48;16.98;;;8.60;;
76103;SDS011;64831;44.870;37.336;2022-12-24T17:32:14;15.90;;;6.50;;
76103;SDS011;64831;44.870;37.336;2022-12-24T17:34:40;22.30;;;11.00;;
76103;SDS011;64831;44.870;37.336;2022-12-24T17:37:06;23.42;;;10.85;;
76103;SDS011;64831;44.870;37.336;2022-12-24T17:39:32;22.33;;;11.02;;
76103;SDS011;64831;44.870;37.336;2022-12-24T17:41:58;22.63;;;9.32;;
76103;SDS011;64831;44.870;37.336;2022-12-24T17:44:24;16.25;;;7.70;;
76103;SDS011;64831;44.870;37.336;2022-12-24T17:46:50;23.65;;;10.63;;
76103;SDS011;64831;44.870;37.336;2022-12-24T17:49:16;23.50;;;11.13;;
76103;SDS011;64831;44.870;37.336;2022-12-24T17:51:42;24.02;;;11.35;;
76103;SDS011;64831;44.870;37.336;2022-12-24T17:54:08;22.75;;;7.15;;
76103;SDS011;64831;44.870;37.336;2022-12-24T17:56:34;19.85;;;10.80;;
76103;SDS011;64831;44.870;37.336;2022-12-24T17:59:00;23.30;;;9.73;;
76103;SDS011;64831;44.870;37.336;2022-12-24T18:01:26;38.75;;;14.13;;
76103;SDS011;64831;44.870;37.336;2022-12-24T18:03:59;27.48;;;10.27;;
76103;SDS011;64831;44.870;37.336;2022-12-24T18:06:26;20.05;;;9.25;;
76103;SDS011;64831;44.870;37.336;2022-12-24T18:08:52;20.58;;;10.02;;
76103;SDS011;64831;44.870;37.336;2022-12-24T18:11:23;19.70;;;9.40;;
76103;SDS011;64831;44.870;37.336;2022-12-24T18:13:54;23.77;;;10.57;;
76103;SDS011;64831;44.870;37.336;2022-12-24T18:18:49;13.18;;;6.55;;
76103;SDS011;64831;44.870;37.336;2022-12-24T18:21:16;22.23;;;10.65;;
76103;SDS011;64831;44.870;37.336;2022-12-24T18:23:44;24.35;;;10.88;;
76103;SDS011;64831;44.870;37.336;2022-12-24T18:26:12;22.02;;;11.30;;
76103;SDS011;64831;44.870;37.336;2022-12-24T18:28:39;19.60;;;7.82;;
76103;SDS011;64831;44.870;37.336;2022-12-24T18:31:08;20.00;;;9.25;;
76103;SDS011;64831;44.870;37.336;2022-12-24T18:33:37;23.55;;;11.18;;
76103;SDS011;64831;44.870;37.336;2022-12-24T18:36:04;22.83;;;11.77;;
76103;SDS011;64831;44.870;37.336;2022-12-24T18:38:30;23.60;;;11.57;;
76103;SDS011;64831;44.870;37.336;2022-12-24T18:41:10;26.23;;;11.77;;
76103;SDS011;64831;44.870;37.336;2022-12-24T18:43:38;23.90;;;11.85;;
76103;SDS011;64831;44.870;37.336;2022-12-24T18:46:12;21.95;;;10.45;;
76103;SDS011;64831;44.870;37.336;2022-12-24T18:48:39;22.85;;;9.52;;
76103;SDS011;64831;44.870;37.336;2022-12-24T18:51:06;21.20;;;10.55;;
76103;SDS011;64831;44.870;37.336;2022-12-24T18:53:33;22.65;;;10.38;;
76103;SDS011;64831;44.870;37.336;2022-12-24T18:56:06;27.52;;;11.80;;
76103;SDS011;64831;44.870;37.336;2022-12-24T18:58:34;20.92;;;10.00;;
76103;SDS011;64831;44.870;37.336;2022-12-24T19:01:11;26.30;;;11.80;;
76103;SDS011;64831;44.870;37.336;2022-12-24T19:03:39;24.52;;;11.20;;
76103;SDS011;64831;44.870;37.336;2022-12-24T19:06:05;24.02;;;11.20;;
76103;SDS011;64831;44.870;37.336;2022-12-24T19:08:32;23.20;;;10.82;;
76103;SDS011;64831;44.870;37.336;2022-12-24T19:10:58;20.67;;;10.20;;
76103;SDS011;64831;44.870;37.336;2022-12-24T19:13:24;25.63;;;11.98;;
76103;SDS011;64831;44.870;37.336;2022-12-24T19:15:50;24.95;;;11.60;;
76103;SDS011;64831;44.870;37.336;2022-12-24T19:18:15;20.98;;;10.98;;
76103;SDS011;64831;44.870;37.336;2022-12-24T19:20:41;20.95;;;10.13;;
76103;SDS011;64831;44.870;37.336;2022-12-24T19:23:08;25.13;;;11.60;;
76103;SDS011;64831;44.870;37.336;2022-12-24T19:25:34;25.10;;;12.45;;
76103;SDS011;64831;44.870;37.336;2022-12-24T19:28:00;23.05;;;10.13;;
76103;SDS011;64831;44.870;37.336;2022-12-24T19:30:39;28.15;;;12.18;;
76103;SDS011;64831;44.870;37.336;2022-12-24T19:33:09;21.75;;;11.15;;
76103;SDS011;64831;44.870;37.336;2022-12-24T19:35:35;25.10;;;11.07;;
76103;SDS011;64831;44.870;37.336;2022-12-24T19:38:02;22.45;;;10.77;;
76103;SDS011;64831;44.870;37.336;2022-12-24T19:40:28;22.13;;;11.18;;
76103;SDS011;64831;44.870;37.336;2022-12-24T19:42:54;23.08;;;11.63;;